sensor_id;sensor_type;location;lat;lon;timestamp;P1;durP1;ratioP1;P2;durP2;ratioP2
15327;SDS011;7764;51.430;6.840;2023-11-19T00:00:11;15.23;;;10.30;;
15327;SDS011;7764;51.430;6.840;2023-11-19T00:02:39;13.60;;;10.23;;
15327;SDS011;7764;51.430;6.840;2023-11-19T00:05:06;18.27;;;11.20;;
15327;SDS011;7764;51.430;6.840;2023-11-19T00:07:37;13.53;;;10.10;;
15327;SDS011;7764;51.430;6.840;2023-11-19T00:10:06;14.00;;;10.80;;
15327;SDS011;7764;51.430;6.840;2023-11-19T00:12:35;13.27;;;10.20;;
15327;SDS011;7764;51.430;6.840;2023-11-19T00:15:02;13.57;;;10.73;;
15327;SDS011;7764;51.430;6.840;2023-11-19T00:17:29;12.97;;;10.23;;
15327;SDS011;7764;51.430;6.840;2023-11-19T00:19:55;13.27;;;9.90;;
15327;SDS011;7764;51.430;6.840;2023-11-19T00:22:22;13.93;;;9.60;;
15327;SDS011;7764;51.430;6.840;2023-11-19T00:24:52;13.13;;;9.57;;
15327;SDS011;7764;51.430;6.840;2023-11-19T00:27:19;14.37;;;9.23;;
15327;SDS011;7764;51.430;6.840;2023-11-19T00:29:46;12.47;;;8.90;;
15327;SDS011;7764;51.430;6.840;2023-11-19T00:32:12;13.23;;;9.77;;
15327;SDS011;7764;51.430;6.840;2023-11-19T00:34:40;13.10;;;8.77;;
15327;SDS011;7764;51.430;6.840;2023-11-19T00:37:09;12.90;;;10.03;;
15327;SDS011;7764;51.430;6.840;2023-11-19T00:39:36;13.20;;;9.37;;
15327;SDS011;7764;51.430;6.840;2023-11-19T00:42:04;13.43;;;10.03;;
15327;SDS011;7764;51.430;6.840;2023-11-19T00:44:31;14.83;;;9.80;;
15327;SDS011;7764;51.430;6.840;2023-11-19T00:46:58;12.13;;;9.07;;
15327;SDS011;7764;51.430;6.840;2023-11-19T00:49:25;12.53;;;9.13;;
15327;SDS011;7764;51.430;6.840;2023-11-19T00:51:52;12.37;;;8.60;;
15327;SDS011;7764;51.430;6.840;2023-11-19T00:54:19;14.53;;;9.30;;
15327;SDS011;7764;51.430;6.840;2023-11-19T00:56:49;13.73;;;9.87;;
15327;SDS011;7764;51.430;6.840;2023-11-19T00:59:18;17.37;;;10.77;;
15327;SDS011;7764;51.430;6.840;2023-11-19T01:01:45;13.50;;;9.87;;
15327;SDS011;7764;51.430;6.840;2023-11-19T01:04:13;12.13;;;9.50;;
15327;SDS011;7764;51.430;6.840;2023-11-19T01:06:39;15.53;;;10.20;;
15327;SDS011;7764;51.430;6.840;2023-11-19T01:09:07;12.00;;;9.27;;
15327;SDS011;7764;51.430;6.840;2023-11-19T01:11:34;11.80;;;9.20;;
15327;SDS011;7764;51.430;6.840;2023-11-19T01:14:01;12.67;;;9.23;;
15327;SDS011;7764;51.430;6.840;2023-11-19T01:16:29;13.80;;;10.00;;
15327;SDS011;7764;51.430;6.840;2023-11-19T01:18:56;13.23;;;10.40;;
15327;SDS011;7764;51.430;6.840;2023-11-19T01:21:23;13.87;;;8.93;;
15327;SDS011;7764;51.430;6.840;2023-11-19T01:23:50;11.30;;;8.87;;
15327;SDS011;7764;51.430;6.840;2023-11-19T01:26:16;10.83;;;8.53;;
15327;SDS011;7764;51.430;6.840;2023-11-19T01:28:43;10.97;;;8.13;;
15327;SDS011;7764;51.430;6.840;2023-11-19T01:31:11;8.90;;;7.60;;
15327;SDS011;7764;51.430;6.840;2023-11-19T01:33:42;9.63;;;7.33;;
15327;SDS011;7764;51.430;6.840;2023-11-19T01:36:09;8.50;;;6.70;;
15327;SDS011;7764;51.430;6.840;2023-11-19T01:38:38;8.60;;;7.20;;
15327;SDS011;7764;51.430;6.840;2023-11-19T01:41:05;10.30;;;8.63;;
15327;SDS011;7764;51.430;6.840;2023-11-19T01:43:36;10.83;;;8.70;;
15327;SDS011;7764;51.430;6.840;2023-11-19T01:46:04;12.47;;;8.60;;
15327;SDS011;7764;51.430;6.840;2023-11-19T01:48:32;9.63;;;8.07;;
15327;SDS011;7764;51.430;6.840;2023-11-19T01:51:02;12.87;;;9.33;;
15327;SDS011;7764;51.430;6.840;2023-11-19T01:53:30;11.73;;;8.90;;
15327;SDS011;7764;51.430;6.840;2023-11-19T01:55:58;13.20;;;8.57;;
15327;SDS011;7764;51.430;6.840;2023-11-19T01:58:25;13.37;;;9.10;;
15327;SDS011;7764;51.430;6.840;2023-11-19T02:00:54;12.53;;;9.03;;
15327;SDS011;7764;51.430;6.840;2023-11-19T02:03:22;12.83;;;9.07;;
15327;SDS011;7764;51.430;6.840;2023-11-19T02:05:51;13.97;;;9.30;;
15327;SDS011;7764;51.430;6.840;2023-11-19T02:08:19;15.57;;;10.33;;
15327;SDS011;7764;51.430;6.840;2023-11-19T02:10:46;11.20;;;8.97;;
15327;SDS011;7764;51.430;6.840;2023-11-19T02:13:13;14.77;;;9.90;;
15327;SDS011;7764;51.430;6.840;2023-11-19T02:15:41;15.27;;;9.93;;
15327;SDS011;7764;51.430;6.840;2023-11-19T02:18:18;16.63;;;9.53;;
15327;SDS011;7764;51.430;6.840;2023-11-19T02:20:46;11.77;;;8.30;;
15327;SDS011;7764;51.430;6.840;2023-11-19T02:23:14;13.27;;;8.50;;
15327;SDS011;7764;51.430;6.840;2023-11-19T02:25:43;12.20;;;7.63;;
15327;SDS011;7764;51.430;6.840;2023-11-19T02:28:18;11.63;;;7.23;;
15327;SDS011;7764;51.430;6.840;2023-11-19T02:30:45;14.83;;;7.40;;
15327;SDS011;7764;51.430;6.840;2023-11-19T02:33:12;11.20;;;6.57;;
15327;SDS011;7764;51.430;6.840;2023-11-19T02:35:40;10.07;;;5.80;;
15327;SDS011;7764;51.430;6.840;2023-11-19T02:38:07;13.47;;;5.73;;
15327;SDS011;7764;51.430;6.840;2023-11-19T02:40:34;9.33;;;5.67;;
15327;SDS011;7764;51.430;6.840;2023-11-19T02:43:00;14.07;;;5.93;;
15327;SDS011;7764;51.430;6.840;2023-11-19T02:45:31;13.60;;;5.97;;
15327;SDS011;7764;51.430;6.840;2023-11-19T02:47:58;13.03;;;6.90;;
15327;SDS011;7764;51.430;6.840;2023-11-19T02:50:26;18.37;;;7.40;;
15327;SDS011;7764;51.430;6.840;2023-11-19T02:52:54;19.07;;;7.47;;
15327;SDS011;7764;51.430;6.840;2023-11-19T02:55:22;18.57;;;7.57;;
15327;SDS011;7764;51.430;6.840;2023-11-19T02:57:49;16.37;;;7.20;;
15327;SDS011;7764;51.430;6.840;2023-11-19T03:00:18;14.37;;;7.40;;
15327;SDS011;7764;51.430;6.840;2023-11-19T03:02:51;19.57;;;8.03;;
15327;SDS011;7764;51.430;6.840;2023-11-19T03:05:24;15.47;;;7.10;;
15327;SDS011;7764;51.430;6.840;2023-11-19T03:07:51;18.13;;;7.40;;
15327;SDS011;7764;51.430;6.840;2023-11-19T03:10:18;20.50;;;8.57;;
15327;SDS011;7764;51.430;6.840;2023-11-19T03:12:45;19.73;;;8.53;;
15327;SDS011;7764;51.430;6.840;2023-11-19T03:15:12;19.53;;;8.93;;
15327;SDS011;7764;51.430;6.840;2023-11-19T03:17:39;21.17;;;9.53;;
15327;SDS011;7764;51.430;6.840;2023-11-19T03:20:09;16.67;;;8.47;;
15327;SDS011;7764;51.430;6.840;2023-11-19T03:22:40;17.33;;;7.27;;
15327;SDS011;7764;51.430;6.840;2023-11-19T03:25:07;15.07;;;7.17;;
15327;SDS011;7764;51.430;6.840;2023-11-19T03:27:34;18.20;;;7.07;;
15327;SDS011;7764;51.430;6.840;2023-11-19T03:30:01;20.47;;;7.03;;
15327;SDS011;7764;51.430;6.840;2023-11-19T03:32:29;19.60;;;6.83;;
15327;SDS011;7764;51.430;6.840;2023-11-19T03:34:57;19.47;;;5.90;;
15327;SDS011;7764;51.430;6.840;2023-11-19T03:37:25;17.50;;;5.90;;
15327;SDS011;7764;51.430;6.840;2023-11-19T03:39:53;19.53;;;5.50;;
15327;SDS011;7764;51.430;6.840;2023-11-19T03:42:20;17.17;;;5.80;;
15327;SDS011;7764;51.430;6.840;2023-11-19T03:44:47;23.67;;;5.60;;
15327;SDS011;7764;51.430;6.840;2023-11-19T03:47:15;19.30;;;5.40;;
15327;SDS011;7764;51.430;6.840;2023-11-19T03:49:42;21.73;;;6.50;;
15327;SDS011;7764;51.430;6.840;2023-11-19T03:52:13;20.63;;;6.30;;
15327;SDS011;7764;51.430;6.840;2023-11-19T03:54:41;16.30;;;5.60;;
15327;SDS011;7764;51.430;6.840;2023-11-19T03:57:08;19.47;;;6.20;;
15327;SDS011;7764;51.430;6.840;2023-11-19T03:59:37;17.03;;;5.90;;
15327;SDS011;7764;51.430;6.840;2023-11-19T04:02:03;20.23;;;6.70;;
15327;SDS011;7764;51.430;6.840;2023-11-19T04:04:31;22.97;;;5.80;;
15327;SDS011;7764;51.430;6.840;2023-11-19T04:06:58;22.63;;;7.17;;
15327;SDS011;7764;51.430;6.840;2023-11-19T04:09:26;22.43;;;6.27;;
15327;SDS011;7764;51.430;6.840;2023-11-19T04:11:54;21.27;;;5.97;;
15327;SDS011;7764;51.430;6.840;2023-11-19T04:14:21;22.27;;;5.80;;
15327;SDS011;7764;51.430;6.840;2023-11-19T04:16:47;19.67;;;5.83;;
15327;SDS011;7764;51.430;6.840;2023-11-19T04:19:14;21.87;;;6.10;;
15327;SDS011;7764;51.430;6.840;2023-11-19T04:21:41;20.57;;;5.63;;
15327;SDS011;7764;51.430;6.840;2023-11-19T04:24:08;24.20;;;5.67;;
15327;SDS011;7764;51.430;6.840;2023-11-19T04:26:39;20.23;;;5.57;;
15327;SDS011;7764;51.430;6.840;2023-11-19T04:29:08;20.47;;;5.23;;
15327;SDS011;7764;51.430;6.840;2023-11-19T04:31:36;24.40;;;5.87;;
15327;SDS011;7764;51.430;6.840;2023-11-19T04:34:03;27.97;;;6.03;;
15327;SDS011;7764;51.430;6.840;2023-11-19T04:36:31;22.93;;;5.47;;
15327;SDS011;7764;51.430;6.840;2023-11-19T04:38:58;23.57;;;6.00;;
15327;SDS011;7764;51.430;6.840;2023-11-19T04:41:25;24.93;;;5.90;;
15327;SDS011;7764;51.430;6.840;2023-11-19T04:43:53;25.60;;;6.00;;
15327;SDS011;7764;51.430;6.840;2023-11-19T04:46:21;32.27;;;7.63;;
15327;SDS011;7764;51.430;6.840;2023-11-19T04:48:49;26.57;;;6.10;;
15327;SDS011;7764;51.430;6.840;2023-11-19T04:51:16;28.13;;;6.37;;
15327;SDS011;7764;51.430;6.840;2023-11-19T04:53:43;28.07;;;6.80;;
15327;SDS011;7764;51.430;6.840;2023-11-19T04:56:10;24.77;;;6.37;;
15327;SDS011;7764;51.430;6.840;2023-11-19T04:58:38;29.70;;;6.00;;
15327;SDS011;7764;51.430;6.840;2023-11-19T05:01:05;27.47;;;5.67;;
15327;SDS011;7764;51.430;6.840;2023-11-19T05:03:33;22.50;;;5.77;;
15327;SDS011;7764;51.430;6.840;2023-11-19T05:06:01;21.60;;;6.07;;
15327;SDS011;7764;51.430;6.840;2023-11-19T05:08:28;22.47;;;5.80;;
15327;SDS011;7764;51.430;6.840;2023-11-19T05:10:55;27.53;;;6.33;;
15327;SDS011;7764;51.430;6.840;2023-11-19T05:13:22;28.67;;;6.93;;
15327;SDS011;7764;51.430;6.840;2023-11-19T05:15:49;24.93;;;6.77;;
15327;SDS011;7764;51.430;6.840;2023-11-19T05:18:16;26.70;;;6.00;;
15327;SDS011;7764;51.430;6.840;2023-11-19T05:20:48;28.00;;;5.83;;
15327;SDS011;7764;51.430;6.840;2023-11-19T05:23:14;25.67;;;6.00;;
15327;SDS011;7764;51.430;6.840;2023-11-19T05:25:41;33.27;;;6.53;;
15327;SDS011;7764;51.430;6.840;2023-11-19T05:28:08;24.53;;;4.83;;
15327;SDS011;7764;51.430;6.840;2023-11-19T05:30:35;23.83;;;5.00;;
15327;SDS011;7764;51.430;6.840;2023-11-19T05:33:02;30.13;;;5.90;;
15327;SDS011;7764;51.430;6.840;2023-11-19T05:35:28;25.87;;;5.53;;
15327;SDS011;7764;51.430;6.840;2023-11-19T05:37:56;24.67;;;6.20;;
15327;SDS011;7764;51.430;6.840;2023-11-19T05:40:23;23.17;;;5.40;;
15327;SDS011;7764;51.430;6.840;2023-11-19T05:42:50;23.67;;;5.67;;
15327;SDS011;7764;51.430;6.840;2023-11-19T05:45:17;23.67;;;4.97;;
15327;SDS011;7764;51.430;6.840;2023-11-19T05:47:44;24.07;;;5.57;;
15327;SDS011;7764;51.430;6.840;2023-11-19T05:50:11;25.17;;;5.50;;
15327;SDS011;7764;51.430;6.840;2023-11-19T05:52:38;24.93;;;4.63;;
15327;SDS011;7764;51.430;6.840;2023-11-19T05:55:06;25.47;;;5.03;;
15327;SDS011;7764;51.430;6.840;2023-11-19T05:57:35;21.70;;;5.03;;
15327;SDS011;7764;51.430;6.840;2023-11-19T06:00:02;23.47;;;5.00;;
15327;SDS011;7764;51.430;6.840;2023-11-19T06:02:32;24.63;;;5.00;;
15327;SDS011;7764;51.430;6.840;2023-11-19T06:04:59;21.60;;;4.70;;
15327;SDS011;7764;51.430;6.840;2023-11-19T06:07:25;27.47;;;6.03;;
15327;SDS011;7764;51.430;6.840;2023-11-19T06:09:52;24.47;;;5.13;;
15327;SDS011;7764;51.430;6.840;2023-11-19T06:12:20;30.20;;;5.47;;
15327;SDS011;7764;51.430;6.840;2023-11-19T06:14:47;27.07;;;6.00;;
15327;SDS011;7764;51.430;6.840;2023-11-19T06:17:14;24.87;;;5.13;;
15327;SDS011;7764;51.430;6.840;2023-11-19T06:19:41;26.77;;;5.00;;
15327;SDS011;7764;51.430;6.840;2023-11-19T06:22:07;24.03;;;5.40;;
15327;SDS011;7764;51.430;6.840;2023-11-19T06:24:34;23.93;;;5.57;;
15327;SDS011;7764;51.430;6.840;2023-11-19T06:27:01;26.93;;;5.90;;
15327;SDS011;7764;51.430;6.840;2023-11-19T06:29:30;27.33;;;5.73;;
15327;SDS011;7764;51.430;6.840;2023-11-19T06:31:57;23.60;;;6.10;;
15327;SDS011;7764;51.430;6.840;2023-11-19T06:34:24;30.87;;;6.90;;
15327;SDS011;7764;51.430;6.840;2023-11-19T06:36:51;29.23;;;6.60;;
15327;SDS011;7764;51.430;6.840;2023-11-19T06:39:18;23.67;;;6.17;;
15327;SDS011;7764;51.430;6.840;2023-11-19T06:41:45;24.47;;;6.03;;
15327;SDS011;7764;51.430;6.840;2023-11-19T06:44:12;29.67;;;6.27;;
15327;SDS011;7764;51.430;6.840;2023-11-19T06:46:40;32.07;;;6.27;;
15327;SDS011;7764;51.430;6.840;2023-11-19T06:49:07;27.13;;;5.80;;
15327;SDS011;7764;51.430;6.840;2023-11-19T06:51:34;27.07;;;5.40;;
15327;SDS011;7764;51.430;6.840;2023-11-19T06:54:01;28.90;;;5.63;;
15327;SDS011;7764;51.430;6.840;2023-11-19T06:56:27;22.83;;;5.20;;
15327;SDS011;7764;51.430;6.840;2023-11-19T06:58:54;26.73;;;5.87;;
15327;SDS011;7764;51.430;6.840;2023-11-19T07:01:21;24.47;;;5.50;;
15327;SDS011;7764;51.430;6.840;2023-11-19T07:03:49;22.67;;;5.10;;
15327;SDS011;7764;51.430;6.840;2023-11-19T07:06:16;29.27;;;5.93;;
15327;SDS011;7764;51.430;6.840;2023-11-19T07:08:43;28.13;;;5.63;;
15327;SDS011;7764;51.430;6.840;2023-11-19T07:11:10;26.67;;;5.40;;
15327;SDS011;7764;51.430;6.840;2023-11-19T07:13:39;28.60;;;4.97;;
15327;SDS011;7764;51.430;6.840;2023-11-19T07:16:06;35.30;;;5.90;;
15327;SDS011;7764;51.430;6.840;2023-11-19T07:18:35;22.53;;;5.10;;
15327;SDS011;7764;51.430;6.840;2023-11-19T07:21:05;26.33;;;5.63;;
15327;SDS011;7764;51.430;6.840;2023-11-19T07:23:35;29.37;;;5.33;;
15327;SDS011;7764;51.430;6.840;2023-11-19T07:26:04;24.03;;;4.77;;
15327;SDS011;7764;51.430;6.840;2023-11-19T07:28:33;25.10;;;5.20;;
15327;SDS011;7764;51.430;6.840;2023-11-19T07:31:00;29.53;;;5.67;;
15327;SDS011;7764;51.430;6.840;2023-11-19T07:33:27;30.97;;;6.23;;
15327;SDS011;7764;51.430;6.840;2023-11-19T07:35:54;29.30;;;5.87;;
15327;SDS011;7764;51.430;6.840;2023-11-19T07:38:23;28.07;;;5.87;;
15327;SDS011;7764;51.430;6.840;2023-11-19T07:40:49;27.57;;;5.90;;
15327;SDS011;7764;51.430;6.840;2023-11-19T07:43:16;28.20;;;6.03;;
15327;SDS011;7764;51.430;6.840;2023-11-19T07:45:43;29.77;;;6.30;;
15327;SDS011;7764;51.430;6.840;2023-11-19T07:48:11;26.80;;;6.00;;
15327;SDS011;7764;51.430;6.840;2023-11-19T07:50:38;32.63;;;6.10;;
15327;SDS011;7764;51.430;6.840;2023-11-19T07:53:06;29.10;;;6.23;;
15327;SDS011;7764;51.430;6.840;2023-11-19T07:55:35;28.57;;;6.07;;
15327;SDS011;7764;51.430;6.840;2023-11-19T07:58:02;25.40;;;5.00;;
15327;SDS011;7764;51.430;6.840;2023-11-19T08:00:28;23.07;;;5.60;;
15327;SDS011;7764;51.430;6.840;2023-11-19T08:02:55;26.43;;;5.53;;
15327;SDS011;7764;51.430;6.840;2023-11-19T08:05:22;26.67;;;5.07;;
15327;SDS011;7764;51.430;6.840;2023-11-19T08:07:49;26.77;;;6.10;;
15327;SDS011;7764;51.430;6.840;2023-11-19T08:10:18;26.00;;;5.17;;
15327;SDS011;7764;51.430;6.840;2023-11-19T08:12:46;21.93;;;4.80;;
15327;SDS011;7764;51.430;6.840;2023-11-19T08:15:13;28.97;;;5.17;;
15327;SDS011;7764;51.430;6.840;2023-11-19T08:17:40;24.37;;;5.43;;
15327;SDS011;7764;51.430;6.840;2023-11-19T08:20:08;24.37;;;5.20;;
15327;SDS011;7764;51.430;6.840;2023-11-19T08:22:35;21.53;;;5.17;;
15327;SDS011;7764;51.430;6.840;2023-11-19T08:25:03;27.73;;;5.77;;
15327;SDS011;7764;51.430;6.840;2023-11-19T08:27:30;30.87;;;6.23;;
15327;SDS011;7764;51.430;6.840;2023-11-19T08:29:59;28.20;;;6.10;;
15327;SDS011;7764;51.430;6.840;2023-11-19T08:32:26;25.43;;;5.20;;
15327;SDS011;7764;51.430;6.840;2023-11-19T08:34:53;30.23;;;5.73;;
15327;SDS011;7764;51.430;6.840;2023-11-19T08:37:21;28.37;;;5.47;;
15327;SDS011;7764;51.430;6.840;2023-11-19T08:39:47;28.03;;;5.40;;
15327;SDS011;7764;51.430;6.840;2023-11-19T08:42:15;27.67;;;5.20;;
15327;SDS011;7764;51.430;6.840;2023-11-19T08:44:48;27.70;;;5.70;;
15327;SDS011;7764;51.430;6.840;2023-11-19T08:47:20;33.17;;;6.13;;
15327;SDS011;7764;51.430;6.840;2023-11-19T08:49:47;26.40;;;5.57;;
15327;SDS011;7764;51.430;6.840;2023-11-19T08:52:16;29.53;;;6.03;;
15327;SDS011;7764;51.430;6.840;2023-11-19T08:54:43;23.47;;;5.33;;
15327;SDS011;7764;51.430;6.840;2023-11-19T08:57:11;27.10;;;5.30;;
15327;SDS011;7764;51.430;6.840;2023-11-19T08:59:37;24.63;;;5.53;;
15327;SDS011;7764;51.430;6.840;2023-11-19T09:02:04;27.07;;;5.37;;
15327;SDS011;7764;51.430;6.840;2023-11-19T09:04:33;24.47;;;5.70;;
15327;SDS011;7764;51.430;6.840;2023-11-19T09:07:01;30.33;;;6.33;;
15327;SDS011;7764;51.430;6.840;2023-11-19T09:09:28;32.77;;;7.57;;
15327;SDS011;7764;51.430;6.840;2023-11-19T09:11:55;24.20;;;5.27;;
15327;SDS011;7764;51.430;6.840;2023-11-19T09:14:21;24.70;;;5.03;;
15327;SDS011;7764;51.430;6.840;2023-11-19T09:16:51;27.93;;;7.43;;
15327;SDS011;7764;51.430;6.840;2023-11-19T09:19:17;26.13;;;5.20;;
15327;SDS011;7764;51.430;6.840;2023-11-19T09:21:46;23.80;;;4.80;;
15327;SDS011;7764;51.430;6.840;2023-11-19T09:24:14;29.10;;;5.87;;
15327;SDS011;7764;51.430;6.840;2023-11-19T09:26:41;23.67;;;5.37;;
15327;SDS011;7764;51.430;6.840;2023-11-19T09:29:08;23.10;;;5.10;;
15327;SDS011;7764;51.430;6.840;2023-11-19T09:31:35;30.37;;;6.07;;
15327;SDS011;7764;51.430;6.840;2023-11-19T09:34:04;24.33;;;4.93;;
15327;SDS011;7764;51.430;6.840;2023-11-19T09:36:31;22.93;;;5.23;;
15327;SDS011;7764;51.430;6.840;2023-11-19T09:38:59;23.20;;;4.87;;
15327;SDS011;7764;51.430;6.840;2023-11-19T09:41:27;28.40;;;6.33;;
15327;SDS011;7764;51.430;6.840;2023-11-19T09:43:55;26.80;;;5.40;;
15327;SDS011;7764;51.430;6.840;2023-11-19T09:46:22;24.73;;;6.10;;
15327;SDS011;7764;51.430;6.840;2023-11-19T09:48:50;26.73;;;6.07;;
15327;SDS011;7764;51.430;6.840;2023-11-19T09:51:20;26.67;;;5.67;;
15327;SDS011;7764;51.430;6.840;2023-11-19T09:53:47;32.00;;;6.10;;
15327;SDS011;7764;51.430;6.840;2023-11-19T09:56:16;23.67;;;5.23;;
15327;SDS011;7764;51.430;6.840;2023-11-19T09:58:42;31.77;;;5.70;;
15327;SDS011;7764;51.430;6.840;2023-11-19T10:01:09;22.40;;;5.40;;
15327;SDS011;7764;51.430;6.840;2023-11-19T10:03:37;25.47;;;5.37;;
15327;SDS011;7764;51.430;6.840;2023-11-19T10:06:06;30.63;;;7.07;;
15327;SDS011;7764;51.430;6.840;2023-11-19T10:08:34;25.87;;;5.80;;
15327;SDS011;7764;51.430;6.840;2023-11-19T10:11:04;29.17;;;5.50;;
15327;SDS011;7764;51.430;6.840;2023-11-19T10:13:33;25.00;;;5.33;;
15327;SDS011;7764;51.430;6.840;2023-11-19T10:16:04;27.67;;;5.97;;
15327;SDS011;7764;51.430;6.840;2023-11-19T10:18:33;26.97;;;5.70;;
15327;SDS011;7764;51.430;6.840;2023-11-19T10:21:03;28.93;;;5.13;;
15327;SDS011;7764;51.430;6.840;2023-11-19T10:23:31;26.20;;;5.97;;
15327;SDS011;7764;51.430;6.840;2023-11-19T10:26:15;25.97;;;4.80;;
15327;SDS011;7764;51.430;6.840;2023-11-19T10:28:43;25.20;;;5.50;;
15327;SDS011;7764;51.430;6.840;2023-11-19T10:31:11;24.77;;;5.30;;
15327;SDS011;7764;51.430;6.840;2023-11-19T10:33:39;28.00;;;5.73;;
15327;SDS011;7764;51.430;6.840;2023-11-19T10:36:10;29.37;;;5.53;;
15327;SDS011;7764;51.430;6.840;2023-11-19T10:38:39;23.00;;;5.20;;
15327;SDS011;7764;51.430;6.840;2023-11-19T10:41:07;24.97;;;5.43;;
15327;SDS011;7764;51.430;6.840;2023-11-19T10:43:43;24.13;;;5.70;;
15327;SDS011;7764;51.430;6.840;2023-11-19T10:46:11;28.53;;;5.73;;
15327;SDS011;7764;51.430;6.840;2023-11-19T10:48:38;27.47;;;5.50;;
15327;SDS011;7764;51.430;6.840;2023-11-19T10:51:06;30.97;;;5.67;;
15327;SDS011;7764;51.430;6.840;2023-11-19T10:53:35;25.33;;;5.57;;
15327;SDS011;7764;51.430;6.840;2023-11-19T10:56:04;24.57;;;4.97;;
15327;SDS011;7764;51.430;6.840;2023-11-19T10:58:36;21.37;;;4.77;;
15327;SDS011;7764;51.430;6.840;2023-11-19T11:01:13;23.60;;;5.13;;
15327;SDS011;7764;51.430;6.840;2023-11-19T11:03:46;20.17;;;4.73;;
15327;SDS011;7764;51.430;6.840;2023-11-19T11:06:14;19.37;;;4.40;;
15327;SDS011;7764;51.430;6.840;2023-11-19T11:08:41;23.43;;;4.57;;
15327;SDS011;7764;51.430;6.840;2023-11-19T11:11:09;25.93;;;5.23;;
15327;SDS011;7764;51.430;6.840;2023-11-19T11:13:39;23.33;;;4.57;;
15327;SDS011;7764;51.430;6.840;2023-11-19T11:16:08;23.17;;;4.40;;
15327;SDS011;7764;51.430;6.840;2023-11-19T11:18:37;19.17;;;4.37;;
15327;SDS011;7764;51.430;6.840;2023-11-19T11:21:04;24.07;;;4.70;;
15327;SDS011;7764;51.430;6.840;2023-11-19T11:23:44;19.20;;;4.87;;
15327;SDS011;7764;51.430;6.840;2023-11-19T11:29:26;19.63;;;4.43;;
15327;SDS011;7764;51.430;6.840;2023-11-19T11:32:05;19.97;;;4.87;;
15327;SDS011;7764;51.430;6.840;2023-11-19T11:34:51;19.57;;;4.57;;
15327;SDS011;7764;51.430;6.840;2023-11-19T11:37:30;22.17;;;5.60;;
15327;SDS011;7764;51.430;6.840;2023-11-19T11:40:00;24.90;;;5.00;;
15327;SDS011;7764;51.430;6.840;2023-11-19T11:42:35;20.67;;;4.87;;
15327;SDS011;7764;51.430;6.840;2023-11-19T11:45:03;17.47;;;4.50;;
15327;SDS011;7764;51.430;6.840;2023-11-19T11:50:46;24.77;;;5.00;;
15327;SDS011;7764;51.430;6.840;2023-11-19T11:53:16;21.63;;;4.70;;
15327;SDS011;7764;51.430;6.840;2023-11-19T11:55:52;21.20;;;4.47;;
15327;SDS011;7764;51.430;6.840;2023-11-19T11:58:32;20.30;;;4.60;;
15327;SDS011;7764;51.430;6.840;2023-11-19T12:01:04;29.80;;;5.43;;
15327;SDS011;7764;51.430;6.840;2023-11-19T12:03:34;23.27;;;4.57;;
15327;SDS011;7764;51.430;6.840;2023-11-19T12:06:04;22.40;;;4.77;;
15327;SDS011;7764;51.430;6.840;2023-11-19T12:08:33;19.40;;;4.20;;
15327;SDS011;7764;51.430;6.840;2023-11-19T12:11:01;20.10;;;4.70;;
15327;SDS011;7764;51.430;6.840;2023-11-19T12:13:42;17.33;;;4.30;;
15327;SDS011;7764;51.430;6.840;2023-11-19T12:16:14;21.47;;;4.60;;
15327;SDS011;7764;51.430;6.840;2023-11-19T12:18:41;19.63;;;4.50;;
15327;SDS011;7764;51.430;6.840;2023-11-19T12:21:09;22.60;;;4.50;;
15327;SDS011;7764;51.430;6.840;2023-11-19T12:23:44;20.03;;;4.30;;
15327;SDS011;7764;51.430;6.840;2023-11-19T12:26:32;19.87;;;4.63;;
15327;SDS011;7764;51.430;6.840;2023-11-19T12:29:00;24.37;;;7.30;;
15327;SDS011;7764;51.430;6.840;2023-11-19T12:31:31;19.37;;;4.90;;
15327;SDS011;7764;51.430;6.840;2023-11-19T12:34:00;19.67;;;4.13;;
15327;SDS011;7764;51.430;6.840;2023-11-19T12:36:33;19.67;;;4.90;;
15327;SDS011;7764;51.430;6.840;2023-11-19T12:39:00;21.97;;;4.60;;
15327;SDS011;7764;51.430;6.840;2023-11-19T12:41:27;18.70;;;4.57;;
15327;SDS011;7764;51.430;6.840;2023-11-19T12:43:54;18.23;;;4.20;;
15327;SDS011;7764;51.430;6.840;2023-11-19T12:46:34;18.93;;;4.60;;
15327;SDS011;7764;51.430;6.840;2023-11-19T12:49:01;15.87;;;4.30;;
15327;SDS011;7764;51.430;6.840;2023-11-19T12:51:30;15.37;;;4.50;;
15327;SDS011;7764;51.430;6.840;2023-11-19T12:53:58;18.40;;;4.40;;
15327;SDS011;7764;51.430;6.840;2023-11-19T12:56:25;15.67;;;3.70;;
15327;SDS011;7764;51.430;6.840;2023-11-19T12:58:52;18.87;;;5.00;;
15327;SDS011;7764;51.430;6.840;2023-11-19T13:01:19;21.63;;;5.13;;
15327;SDS011;7764;51.430;6.840;2023-11-19T13:03:47;17.10;;;5.10;;
15327;SDS011;7764;51.430;6.840;2023-11-19T13:06:16;13.60;;;4.07;;
15327;SDS011;7764;51.430;6.840;2023-11-19T13:08:46;13.40;;;3.63;;
15327;SDS011;7764;51.430;6.840;2023-11-19T13:11:30;17.13;;;4.30;;
15327;SDS011;7764;51.430;6.840;2023-11-19T13:13:57;15.80;;;4.03;;
15327;SDS011;7764;51.430;6.840;2023-11-19T13:16:26;17.40;;;4.60;;
15327;SDS011;7764;51.430;6.840;2023-11-19T13:18:53;16.33;;;3.73;;
15327;SDS011;7764;51.430;6.840;2023-11-19T13:21:20;17.10;;;4.80;;
15327;SDS011;7764;51.430;6.840;2023-11-19T13:23:47;16.47;;;4.67;;
15327;SDS011;7764;51.430;6.840;2023-11-19T13:26:14;19.90;;;5.27;;
15327;SDS011;7764;51.430;6.840;2023-11-19T13:28:42;18.63;;;4.77;;
15327;SDS011;7764;51.430;6.840;2023-11-19T13:31:09;18.40;;;4.80;;
15327;SDS011;7764;51.430;6.840;2023-11-19T13:33:36;22.33;;;4.90;;
15327;SDS011;7764;51.430;6.840;2023-11-19T13:36:03;24.07;;;5.97;;
15327;SDS011;7764;51.430;6.840;2023-11-19T13:38:32;23.73;;;5.53;;
15327;SDS011;7764;51.430;6.840;2023-11-19T13:41:00;24.97;;;5.40;;
15327;SDS011;7764;51.430;6.840;2023-11-19T13:43:27;20.07;;;6.20;;
15327;SDS011;7764;51.430;6.840;2023-11-19T13:45:55;18.47;;;5.30;;
15327;SDS011;7764;51.430;6.840;2023-11-19T13:48:23;24.03;;;5.30;;
15327;SDS011;7764;51.430;6.840;2023-11-19T13:50:51;19.40;;;5.03;;
15327;SDS011;7764;51.430;6.840;2023-11-19T13:53:18;22.00;;;5.13;;
15327;SDS011;7764;51.430;6.840;2023-11-19T13:55:45;22.10;;;5.43;;
15327;SDS011;7764;51.430;6.840;2023-11-19T13:58:12;24.30;;;8.93;;
15327;SDS011;7764;51.430;6.840;2023-11-19T14:00:39;18.47;;;4.83;;
15327;SDS011;7764;51.430;6.840;2023-11-19T14:03:08;22.13;;;6.23;;
15327;SDS011;7764;51.430;6.840;2023-11-19T14:05:36;19.60;;;5.27;;
15327;SDS011;7764;51.430;6.840;2023-11-19T14:08:03;20.40;;;5.03;;
15327;SDS011;7764;51.430;6.840;2023-11-19T14:10:36;19.67;;;5.10;;
15327;SDS011;7764;51.430;6.840;2023-11-19T14:13:04;19.40;;;4.80;;
15327;SDS011;7764;51.430;6.840;2023-11-19T14:15:30;21.87;;;5.37;;
15327;SDS011;7764;51.430;6.840;2023-11-19T14:17:57;22.97;;;6.13;;
15327;SDS011;7764;51.430;6.840;2023-11-19T14:20:25;26.17;;;5.33;;
15327;SDS011;7764;51.430;6.840;2023-11-19T14:22:52;22.77;;;4.97;;
15327;SDS011;7764;51.430;6.840;2023-11-19T14:25:19;19.93;;;4.83;;
15327;SDS011;7764;51.430;6.840;2023-11-19T14:27:48;22.90;;;5.53;;
15327;SDS011;7764;51.430;6.840;2023-11-19T14:30:15;16.27;;;4.50;;
15327;SDS011;7764;51.430;6.840;2023-11-19T14:32:43;21.33;;;4.90;;
15327;SDS011;7764;51.430;6.840;2023-11-19T14:35:11;20.77;;;4.93;;
15327;SDS011;7764;51.430;6.840;2023-11-19T14:37:39;23.23;;;4.70;;
15327;SDS011;7764;51.430;6.840;2023-11-19T14:40:06;20.77;;;4.97;;
15327;SDS011;7764;51.430;6.840;2023-11-19T14:42:36;21.37;;;5.23;;
15327;SDS011;7764;51.430;6.840;2023-11-19T14:45:04;23.17;;;6.27;;
15327;SDS011;7764;51.430;6.840;2023-11-19T14:47:31;18.33;;;5.17;;
15327;SDS011;7764;51.430;6.840;2023-11-19T14:49:58;19.47;;;4.43;;
15327;SDS011;7764;51.430;6.840;2023-11-19T14:52:25;19.47;;;4.60;;
15327;SDS011;7764;51.430;6.840;2023-11-19T14:54:54;16.23;;;4.10;;
15327;SDS011;7764;51.430;6.840;2023-11-19T14:57:21;20.60;;;4.80;;
15327;SDS011;7764;51.430;6.840;2023-11-19T14:59:48;22.40;;;5.07;;